x

East Superior -70 Nm Ne Marquette, Mi (45004) Wave Buoy

12:50am - Wed 26th Jul 2017 All times are CDT. -5 hours from GMT.

  • Sig Wave height 2.3ft
  • Swell Direction
  • Peak Period 4s
  • Average Period 4s
  • Wind
    16mph, 20mph gusts
  • Sea Temp 45°f
  • Air Temp 54°f
  • Sea Pressure 1013.3mb
  • East Superior -70 Nm Ne Marquette, Mi
  • East Superior -70 Nm Ne Marquette, Mi

More Historic Weather Station data

Upgrade to MSW Pro to gain access to the past 30 days of data for over 8000 Wavebouys and Weather Stations around the globe.

Join Pro

Comparision Forecast

View Surf forecast
   
Wed 07/26 12:50am 2.5ft 4s 4s 16 20 mph 1013.3mb 45f 54f
Tue 07/25 11:50pm 2.5ft 4s 3s 18 20 mph 1013.9mb 45f 54f
10:50pm 2ft 3s 3s 16 18 mph 1014.7mb 45f 53f
9:50pm 2ft 3s 3s 18 20 mph 1014.2mb 45f 54f
8:50pm 1.3ft 3s 3s 18 20 mph 1014.1mb 46f 55f
7:50pm 1.3ft 3s 3s 13 16 mph 1015.1mb 46f 54f
6:50pm 1.3ft 3s 3s 11 13 mph 1016.1mb 46f 53f
5:50pm 1ft 3s 3s 13 13 mph 1016.4mb 46f 53f
4:50pm 1ft 3s 3s 13 16 mph 1017.2mb 46f 53f
3:50pm 1ft 3s 3s 11 13 mph 1018.3mb 46f 53f
2:50pm 0.7ft  -  3s 13 16 mph 1019.1mb 46f 52f
1:50pm 1ft 3s 3s 9 9 mph 1020mb 46f 52f
12:50pm 1ft 3s 3s 11 13 mph 1019.9mb 45f 52f
11:50am 0.7ft  -  3s 9 11 mph 1020.4mb 45f 51f
10:50am 0.7ft  -  3s 9 11 mph 1020.6mb 45f 49f
9:50am 0.7ft  -  3s 11 11 mph 1020.2mb 45f 49f
8:50am 0.7ft  -  3s 13 13 mph 1020.3mb 45f 50f
7:50am 0.7ft  -  2s 11 13 mph 1020.8mb 45f 51f
6:50am 0.3ft  -  2s 11 13 mph 1020.7mb 45f 51f
5:50am 0.3ft  -  3s 13 13 mph 1020.2mb 45f 51f
4:50am 0.3ft  -  3s 9 9 mph 1019.9mb 46f 51f
3:50am 0.3ft  -  3s 11 11 mph 1019.5mb 46f 52f
2:50am 0.3ft  -  3s 7 9 mph 1019.4mb 46f 50f
1:50am 0.3ft  -  3s 7 9 mph 1019.3mb 46f 51f
12:50am 0.7ft  -  3s 7 9 mph 1019.6mb 47f 50f
Mon 07/24 11:50pm 0.7ft  -  3s 4 7 mph 1019.5mb 47f 53f
10:50pm 0.7ft  -  3s 9 9 mph 1019.1mb 47f 56f
9:50pm 0.7ft  -  3s 7 7 mph 1019.1mb 47f 52f
8:50pm 0.7ft  -  3s 7 7 mph 1018.6mb 47f 53f
7:50pm 0.7ft  -  3s 7 7 mph 1018.4mb 47f 50f
6:50pm 0.7ft  -  3s 9 11 mph 1018.1mb 47f 51f
5:50pm 0.3ft  -  3s 7 9 mph 1018.3mb 47f 51f
4:50pm 0.3ft  -  3s 7 7 mph 1018.4mb 48f 50f
3:50pm 0.3ft  -  4s 7 7 mph 1018.5mb 48f 50f
2:50pm 0.3ft  -  4s 4 7 mph 1018.6mb 47f 50f
1:50pm 0.3ft  -  4s 7 7 mph 1018.5mb 47f 50f
12:50pm 0.3ft  -  4s 4 7 mph 1018.7mb 46f 50f
11:50am 0.3ft  -  4s 4 4 mph 1019.1mb 47f 49f
10:50am 0.3ft  -  4s 4 4 mph 1018.9mb 46f 48f
9:50am 0.3ft  -  4s 4 4 mph 1019mb 45f 47f
8:50am 0.3ft  -  3s 4 4 mph 1018.9mb 46f 49f
7:50am 0.3ft  -  3s  -  0 mph 1018.6mb 44f 54f
6:50am 0.3ft  -  3s 2 2 mph 1018.4mb 44f 51f
5:50am 0.7ft  -  3s 2 2 mph 1017.8mb 44f 50f
4:50am 0.7ft  -  3s 4 4 mph 1017.1mb 44f 48f
3:50am 0.7ft  -  3s 4 7 mph 1016.9mb 44f 46f
2:50am 0.7ft  -  4s 7 7 mph 1016.7mb 44f 47f
1:50am 0.7ft  -  4s 7 9 mph 1016.6mb 44f 49f
12:50am 1ft 4s 4s 7 7 mph 1016.5mb 44f 48f
Sun 07/23 11:50pm 1ft 4s 3s 9 9 mph 1016.3mb 44f 48f
10:50pm 1ft 5s 4s 7 9 mph 1015.8mb 44f 47f
9:50pm 1ft 4s 4s 7 9 mph 1016mb 44f 47f
8:50pm 1.3ft 5s 4s 7 7 mph 1015.2mb 44f 52f
7:50pm 1.3ft 5s 4s 7 7 mph 1014.9mb 44f 50f
6:50pm 1.6ft 5s 4s 4 7 mph 1014.5mb 44f 49f
5:50pm 2ft 5s 4s 4 7 mph 1014.2mb 44f 51f
4:50pm 2ft 5s 4s 7 9 mph 1013.8mb 44f 50f
3:50pm 2.5ft 5s 4s 7 9 mph 1013.5mb 44f 49f
2:50pm 2.5ft 5s 4s 7 9 mph 1013.3mb 44f 48f
1:50pm 3ft 5s 4s 9 9 mph 1012.7mb 43f 48f
12:50pm 2.5ft 4s 4s 11 11 mph 1012.1mb 43f 47f
11:50am 3ft 4s 4s 13 16 mph 1012mb 43f 49f
10:50am 2.5ft 4s 4s 18 20 mph 1011.2mb 43f 50f
9:50am 2.5ft 5s 4s 13 13 mph 1010.7mb 43f 50f
8:50am 2.5ft 4s 4s 16 18 mph 1010.2mb 43f 50f
7:50am 2.5ft 4s 4s 13 16 mph 1009.7mb 43f 51f
6:50am 2.5ft 4s 4s 13 16 mph 1009.2mb 43f 49f
5:50am 2.5ft 4s 4s 13 16 mph 1008.5mb 43f 51f
4:50am 2.5ft 4s 4s 13 16 mph 1008.1mb 43f 50f
3:50am 2.5ft 4s 4s 16 18 mph 1008mb 43f 50f
2:50am 2.5ft 4s 4s 13 16 mph 1008.3mb 43f 49f
1:50am 2.5ft 5s 4s 20 25 mph 1008.5mb 43f 54f
12:50am 2.5ft 4s 4s 20 25 mph 1008.8mb 44f 55f
Sat 07/22 11:50pm 2.5ft 4s 4s 20 25 mph 1008.7mb 44f 56f
10:50pm 2.5ft 4s 4s 18 20 mph 1008.5mb 44f 51f
9:50pm 2.5ft 5s 4s 18 20 mph 1008.9mb 44f 51f
8:50pm 2.5ft 5s 4s 16 18 mph 1009.2mb 44f 51f
7:50pm 2.5ft 5s 4s 13 16 mph 1009.2mb 44f 51f
6:50pm 2.5ft 4s 4s 16 18 mph 1009.4mb 44f 51f
5:50pm 2.5ft 5s 4s 16 18 mph 1009.5mb 44f 51f
4:50pm 2.5ft 4s 3s 18 20 mph 1009.5mb 44f 52f
3:50pm 1.3ft 4s 3s 18 20 mph 1009.9mb 44f 51f
2:50pm 1.6ft 4s 3s 9 11 mph 1010.5mb 44f 49f
1:50pm 2ft 4s 4s 11 13 mph 1010.6mb 44f 49f
12:50pm 2.5ft 5s 4s 16 16 mph 1010.6mb 44f 51f
11:50am 2ft 5s 4s 13 16 mph 1010.7mb 44f 51f
10:50am 2ft 4s 4s 13 16 mph 1011.4mb 44f 49f
9:50am 1.6ft 4s 3s 11 13 mph 1010.7mb 43f 51f
8:50am 1.6ft 3s 3s 16 16 mph 1010.5mb 44f 51f
7:50am 1.6ft 3s 3s 16 16 mph 1010.5mb 44f 51f